createdAt,value
2019-01-16T00:00:45.632Z,12.53
2019-01-16T00:03:19.753Z,12.90
2019-01-16T00:05:48.280Z,12.07
2019-01-16T00:08:35.465Z,11.80
2019-01-16T00:11:04.029Z,12.13
2019-01-16T00:13:32.569Z,10.23
2019-01-16T00:16:19.322Z,10.67
2019-01-16T00:18:50.421Z,10.27
2019-01-16T00:21:36.983Z,9.30
2019-01-16T00:24:17.554Z,9.10
2019-01-16T00:27:02.699Z,10.13
2019-01-16T00:29:48.335Z,9.67
2019-01-16T00:32:19.830Z,9.83
2019-01-16T00:35:03.433Z,10.87
2019-01-16T00:37:46.773Z,10.53
2019-01-16T00:40:18.312Z,10.00
2019-01-16T00:42:52.597Z,10.13
2019-01-16T00:45:33.998Z,10.47
2019-01-16T00:48:05.312Z,10.13
2019-01-16T00:50:39.430Z,10.37
2019-01-16T00:53:25.098Z,10.97
2019-01-16T00:56:02.557Z,11.50
2019-01-16T00:58:31.066Z,10.13
2019-01-16T01:01:05.187Z,11.40
2019-01-16T01:03:42.791Z,10.83
2019-01-16T01:06:13.976Z,11.27
2019-01-16T01:08:42.464Z,10.93
2019-01-16T01:11:11.722Z,12.13
2019-01-16T01:13:46.060Z,12.23
2019-01-16T01:16:18.884Z,11.40
2019-01-16T01:18:53.347Z,11.60
2019-01-16T01:21:22.679Z,11.87
2019-01-16T01:24:02.840Z,11.60
2019-01-16T01:26:37.654Z,11.70
2019-01-16T01:29:06.164Z,12.63
2019-01-16T01:31:51.281Z,11.43
2019-01-16T01:34:36.466Z,10.73
2019-01-16T01:37:05.426Z,10.90
2019-01-16T01:39:50.664Z,11.47
2019-01-16T01:42:29.414Z,10.43
2019-01-16T01:45:16.153Z,11.20
2019-01-16T01:48:03.022Z,9.57
2019-01-16T01:50:37.451Z,9.40
2019-01-16T01:53:23.908Z,9.53
2019-01-16T01:56:09.156Z,9.83
2019-01-16T01:58:46.853Z,9.10
2019-01-16T02:01:30.224Z,8.87
2019-01-16T02:04:15.187Z,9.20
2019-01-16T02:06:46.506Z,8.47
2019-01-16T02:09:31.332Z,10.13
2019-01-16T02:12:15.003Z,9.07
2019-01-16T02:14:49.064Z,9.40
2019-01-16T02:17:23.442Z,9.67
2019-01-16T02:19:51.886Z,8.70
2019-01-16T02:22:32.205Z,9.80
2019-01-16T02:25:09.873Z,9.03
2019-01-16T02:27:44.444Z,9.20
2019-01-16T02:30:17.233Z,9.13
2019-01-16T02:32:51.741Z,9.10
2019-01-16T02:35:20.291Z,8.90
2019-01-16T02:38:00.473Z,8.53
2019-01-16T02:40:31.539Z,9.10
2019-01-16T02:43:00.087Z,7.93
2019-01-16T02:45:31.778Z,9.40
2019-01-16T02:48:16.814Z,9.73
2019-01-16T02:50:45.274Z,9.40
2019-01-16T02:53:30.221Z,9.13
2019-01-16T02:56:04.784Z,9.80
2019-01-16T02:58:33.312Z,9.27
2019-01-16T03:01:04.583Z,8.57
2019-01-16T03:03:45.043Z,9.40
2019-01-16T03:06:28.643Z,9.07
2019-01-16T03:09:15.276Z,8.67
2019-01-16T03:12:00.441Z,8.80
2019-01-16T03:14:31.901Z,8.60
2019-01-16T03:17:00.356Z,10.27
2019-01-16T03:19:30.770Z,10.13
2019-01-16T03:22:14.732Z,12.00
2019-01-16T03:24:58.323Z,11.07
2019-01-16T03:27:29.688Z,11.57
2019-01-16T03:29:58.110Z,11.30
2019-01-16T03:32:29.486Z,11.20
2019-01-16T03:35:00.502Z,12.03
2019-01-16T03:37:47.008Z,13.13
2019-01-16T03:40:15.557Z,13.90
2019-01-16T03:42:44.046Z,14.10
2019-01-16T03:45:12.537Z,13.53
2019-01-16T03:47:57.375Z,13.87
2019-01-16T03:50:32.006Z,13.43
2019-01-16T03:53:09.371Z,13.33
2019-01-16T03:55:46.940Z,13.33
2019-01-16T03:58:31.891Z,12.10
2019-01-16T04:01:03.318Z,13.23
2019-01-16T04:03:49.821Z,13.80
2019-01-16T04:06:18.360Z,12.20
2019-01-16T04:09:05.245Z,12.57
2019-01-16T04:11:39.345Z,12.57
2019-01-16T04:14:13.625Z,12.77
2019-01-16T04:17:00.195Z,10.53
2019-01-16T04:19:40.802Z,11.03
2019-01-16T04:22:09.237Z,10.90
2019-01-16T04:24:40.378Z,10.00
2019-01-16T04:27:18.267Z,9.47
2019-01-16T04:29:46.546Z,9.03
2019-01-16T04:32:17.875Z,9.30
2019-01-16T04:34:49.169Z,8.80
2019-01-16T04:37:26.868Z,8.90
2019-01-16T04:40:13.093Z,8.33
2019-01-16T04:42:41.527Z,8.60
2019-01-16T04:45:21.641Z,8.53
2019-01-16T04:47:53.215Z,8.20
2019-01-16T04:50:21.526Z,8.17
2019-01-16T04:52:58.968Z,7.60
2019-01-16T04:55:43.816Z,8.27
2019-01-16T04:58:21.324Z,7.83
2019-01-16T05:01:01.782Z,8.90
2019-01-16T05:03:42.145Z,8.90
2019-01-16T05:06:13.748Z,8.40
2019-01-16T05:08:54.350Z,8.03
2019-01-16T05:11:25.784Z,8.20
2019-01-16T05:13:55.218Z,8.63
2019-01-16T05:16:23.604Z,7.90
2019-01-16T05:19:07.246Z,7.40
2019-01-16T05:21:41.445Z,7.30
2019-01-16T05:24:10.003Z,7.00
2019-01-16T05:26:38.405Z,7.60
2019-01-16T05:29:12.731Z,7.20
2019-01-16T05:31:47.261Z,6.37
2019-01-16T05:34:15.585Z,7.40
2019-01-16T05:37:00.467Z,7.27
2019-01-16T05:39:34.996Z,7.10
2019-01-16T05:42:06.123Z,7.40
2019-01-16T05:44:37.502Z,6.80
2019-01-16T05:47:22.510Z,7.30
2019-01-16T05:49:51.075Z,7.20
2019-01-16T05:52:19.496Z,7.83
2019-01-16T05:54:52.704Z,7.73
2019-01-16T05:57:23.968Z,7.77
2019-01-16T05:59:52.389Z,8.50
2019-01-16T06:02:29.759Z,8.70
2019-01-16T06:05:07.246Z,9.07
2019-01-16T06:07:38.347Z,9.80
2019-01-16T06:10:21.868Z,9.47
2019-01-16T06:12:56.408Z,9.00
2019-01-16T06:15:40.197Z,8.70
2019-01-16T06:18:20.558Z,8.70
2019-01-16T06:21:05.705Z,7.53
2019-01-16T06:23:34.293Z,7.30
2019-01-16T06:26:11.665Z,6.97
2019-01-16T06:28:55.221Z,6.43
2019-01-16T06:31:23.644Z,7.20
2019-01-16T06:33:52.270Z,6.23
2019-01-16T06:36:29.903Z,6.20
2019-01-16T06:39:15.002Z,5.83
2019-01-16T06:41:46.343Z,6.23
2019-01-16T06:44:17.358Z,5.70
2019-01-16T06:46:54.490Z,5.40
2019-01-16T06:49:26.912Z,5.33
2019-01-16T06:52:07.530Z,5.03
2019-01-16T06:54:38.860Z,5.03
2019-01-16T06:57:10.345Z,5.37
2019-01-16T06:59:57.001Z,5.70
2019-01-16T07:02:25.642Z,4.90
2019-01-16T07:05:10.794Z,4.87
2019-01-16T07:07:55.908Z,4.73
2019-01-16T07:10:27.401Z,4.53
2019-01-16T07:12:58.780Z,4.30
2019-01-16T07:15:29.871Z,4.80
2019-01-16T07:18:04.174Z,4.40
2019-01-16T07:20:50.062Z,5.07
2019-01-16T07:23:18.654Z,4.33
2019-01-16T07:25:56.933Z,4.40
2019-01-16T07:28:25.287Z,4.90
2019-01-16T07:31:10.102Z,4.70
2019-01-16T07:33:38.446Z,4.40
2019-01-16T07:36:16.019Z,4.40
2019-01-16T07:38:59.363Z,4.47
2019-01-16T07:41:34.403Z,3.80
2019-01-16T07:44:08.807Z,4.20
2019-01-16T07:46:43.111Z,4.60
2019-01-16T07:49:20.756Z,4.17
2019-01-16T07:51:49.302Z,3.73
2019-01-16T07:54:17.876Z,4.00
2019-01-16T07:56:49.221Z,3.83
2019-01-16T07:59:21.799Z,3.63
2019-01-16T08:01:53.665Z,3.90
2019-01-16T08:04:34.055Z,4.50
2019-01-16T08:07:17.448Z,4.60
2019-01-16T08:09:46.271Z,5.20
2019-01-16T08:12:32.880Z,5.70
2019-01-16T08:15:10.215Z,4.70
2019-01-16T08:17:55.181Z,4.23
2019-01-16T08:20:40.392Z,5.17
2019-01-16T08:23:10.357Z,4.33
2019-01-16T08:25:38.852Z,4.83
2019-01-16T08:28:24.846Z,6.10
2019-01-16T08:31:01.033Z,5.67
2019-01-16T08:33:35.543Z,6.43
2019-01-16T08:36:20.741Z,5.13
2019-01-16T08:39:00.316Z,5.77
2019-01-16T08:41:36.828Z,5.50
2019-01-16T08:44:14.444Z,4.70
2019-01-16T08:46:42.974Z,5.63
2019-01-16T08:49:28.153Z,5.97
2019-01-16T08:52:03.354Z,5.40
2019-01-16T08:54:32.012Z,4.90
2019-01-16T08:57:00.687Z,5.00
2019-01-16T08:59:32.443Z,5.33
2019-01-16T09:02:03.459Z,5.73
2019-01-16T09:04:33.869Z,5.17
2019-01-16T09:07:06.362Z,5.70
2019-01-16T09:09:34.940Z,6.20
2019-01-16T09:12:03.756Z,6.20
2019-01-16T09:14:35.081Z,6.30
2019-01-16T09:17:03.628Z,6.47
2019-01-16T09:19:39.978Z,6.70
2019-01-16T09:22:11.386Z,7.80
2019-01-16T09:24:40.148Z,7.37
2019-01-16T09:27:25.678Z,8.90
2019-01-16T09:29:57.049Z,8.93
2019-01-16T09:32:31.400Z,9.57
2019-01-16T09:34:59.963Z,11.20
2019-01-16T09:37:40.722Z,10.73
2019-01-16T09:40:14.289Z,10.67
2019-01-16T09:42:59.465Z,10.27
2019-01-16T09:45:36.560Z,11.63
2019-01-16T09:48:06.097Z,11.87
2019-01-16T09:50:34.674Z,11.17
2019-01-16T09:53:22.138Z,12.43
2019-01-16T09:55:57.676Z,12.37
2019-01-16T09:58:26.284Z,12.57
2019-01-16T10:01:11.417Z,11.90
2019-01-16T10:03:39.941Z,12.77
2019-01-16T10:06:26.797Z,12.17
2019-01-16T10:08:55.524Z,11.53
2019-01-16T10:11:40.801Z,11.20
2019-01-16T10:14:28.069Z,10.47
2019-01-16T10:17:13.226Z,9.70
2019-01-16T10:19:44.595Z,9.77
2019-01-16T10:22:27.195Z,10.67
2019-01-16T10:25:07.658Z,10.00
2019-01-16T10:27:51.284Z,9.97
2019-01-16T10:30:31.747Z,9.67
2019-01-16T10:33:09.084Z,8.10
2019-01-16T10:35:54.384Z,9.13
2019-01-16T10:38:40.999Z,9.20
2019-01-16T10:41:25.883Z,8.33
2019-01-16T10:43:54.554Z,8.73
2019-01-16T10:46:24.020Z,8.53
2019-01-16T10:49:02.650Z,9.13
2019-01-16T10:51:48.802Z,8.30
2019-01-16T10:54:23.078Z,8.63
2019-01-16T10:56:51.578Z,9.00
2019-01-16T10:59:29.072Z,7.50
2019-01-16T11:02:14.742Z,8.33
2019-01-16T11:04:56.913Z,8.57
2019-01-16T11:07:36.623Z,6.93
2019-01-16T11:10:24.965Z,7.40
2019-01-16T11:12:59.525Z,7.47
2019-01-16T11:15:29.267Z,7.53
2019-01-16T11:18:06.506Z,7.50
2019-01-16T11:20:37.835Z,6.77
2019-01-16T11:23:21.171Z,7.50
2019-01-16T11:25:49.850Z,7.27
2019-01-16T11:28:21.238Z,7.37
2019-01-16T11:31:14.884Z,7.07
2019-01-16T11:33:45.019Z,7.40
2019-01-16T11:36:25.392Z,7.33
2019-01-16T11:39:13.565Z,6.63
2019-01-16T11:41:42.140Z,6.13
2019-01-16T11:44:27.250Z,7.13
2019-01-16T11:47:01.073Z,7.50
2019-01-16T11:49:30.601Z,7.57
2019-01-16T11:52:15.532Z,6.83
2019-01-16T11:54:44.944Z,6.23
2019-01-16T11:57:13.485Z,7.23
2019-01-16T11:59:46.474Z,6.73
2019-01-16T12:02:23.762Z,8.33
2019-01-16T12:04:55.116Z,7.07
2019-01-16T12:07:24.504Z,6.73
2019-01-16T12:09:55.978Z,6.03
2019-01-16T12:12:36.967Z,5.70
2019-01-16T12:15:20.753Z,6.13
2019-01-16T12:18:07.548Z,6.90
2019-01-16T12:20:41.904Z,5.87
2019-01-16T12:23:10.774Z,5.80
2019-01-16T12:25:48.415Z,6.20
2019-01-16T12:28:29.205Z,6.73
2019-01-16T12:30:57.695Z,6.37
2019-01-16T12:33:29.007Z,6.10
2019-01-16T12:36:08.051Z,7.07
2019-01-16T12:38:43.942Z,7.13
2019-01-16T12:41:24.474Z,7.47
2019-01-16T12:43:54.088Z,7.33
2019-01-16T12:46:23.344Z,7.07
2019-01-16T12:49:08.148Z,7.37
2019-01-16T12:51:45.576Z,6.63
2019-01-16T12:54:32.192Z,7.10
2019-01-16T12:57:03.755Z,6.03
2019-01-16T12:59:32.408Z,6.90
2019-01-16T13:02:02.190Z,6.47
2019-01-16T13:04:39.724Z,6.77
2019-01-16T13:07:11.252Z,6.43
2019-01-16T13:09:42.560Z,6.70
2019-01-16T13:12:23.007Z,6.20
2019-01-16T13:14:54.107Z,5.80
2019-01-16T13:17:23.822Z,5.90
2019-01-16T13:19:53.714Z,6.67
2019-01-16T13:22:22.196Z,6.97
2019-01-16T13:25:02.912Z,6.47
2019-01-16T13:27:46.567Z,5.80
2019-01-16T13:30:31.466Z,7.20
2019-01-16T13:33:11.951Z,6.43
2019-01-16T13:35:41.613Z,6.00
2019-01-16T13:38:22.149Z,6.30
2019-01-16T13:40:51.164Z,5.80
2019-01-16T13:43:29.012Z,6.17
2019-01-16T13:46:14.180Z,6.13
2019-01-16T13:48:52.804Z,5.90
2019-01-16T13:51:30.378Z,5.97
2019-01-16T13:53:58.978Z,5.50
2019-01-16T13:56:27.501Z,6.33
2019-01-16T13:58:56.326Z,5.90
2019-01-16T14:01:31.557Z,6.80
2019-01-16T14:04:08.865Z,5.60
2019-01-16T14:06:37.390Z,6.10
2019-01-16T14:09:19.751Z,5.07
2019-01-16T14:11:56.894Z,6.40
2019-01-16T14:14:31.313Z,6.10
2019-01-16T14:17:02.670Z,5.80
2019-01-16T14:19:38.377Z,5.57
2019-01-16T14:22:16.015Z,5.40
2019-01-16T14:25:01.530Z,5.57
2019-01-16T14:27:38.833Z,4.70
2019-01-16T14:30:16.768Z,5.57
2019-01-16T14:32:54.197Z,5.67
2019-01-16T14:35:22.925Z,6.03
2019-01-16T14:38:01.080Z,5.50
2019-01-16T14:40:29.705Z,6.20
2019-01-16T14:43:15.093Z,5.67
2019-01-16T14:46:02.945Z,6.00
2019-01-16T14:48:32.814Z,5.27
2019-01-16T14:51:03.167Z,5.20
2019-01-16T14:53:37.301Z,5.60
2019-01-16T14:56:11.042Z,5.47
2019-01-16T14:58:56.186Z,5.20
2019-01-16T15:01:41.300Z,5.00
2019-01-16T15:04:12.740Z,5.53
2019-01-16T15:06:44.580Z,5.53
2019-01-16T15:09:21.980Z,5.60
2019-01-16T15:11:50.578Z,5.53
2019-01-16T15:14:35.623Z,4.93
2019-01-16T15:17:10.145Z,4.90
2019-01-16T15:19:44.036Z,4.40
2019-01-16T15:22:28.883Z,4.60
2019-01-16T15:25:00.652Z,4.57
2019-01-16T15:27:46.141Z,4.97
2019-01-16T15:30:16.236Z,5.07
2019-01-16T15:33:01.420Z,4.83
2019-01-16T15:35:48.098Z,4.43
2019-01-16T15:38:16.707Z,5.13
2019-01-16T15:40:45.293Z,5.33
2019-01-16T15:43:15.661Z,5.37
2019-01-16T15:45:45.177Z,4.80
2019-01-16T15:48:30.142Z,4.23
2019-01-16T15:51:16.881Z,4.50
2019-01-16T15:53:54.435Z,5.03
2019-01-16T15:56:22.851Z,5.40
2019-01-16T15:58:51.638Z,4.80
2019-01-16T16:01:21.274Z,6.40
2019-01-16T16:03:49.774Z,6.03
2019-01-16T16:06:21.551Z,5.17
2019-01-16T16:08:57.671Z,5.10
2019-01-16T16:11:28.918Z,4.83
2019-01-16T16:14:01.593Z,4.83
2019-01-16T16:16:39.037Z,4.93
2019-01-16T16:19:09.464Z,5.20
2019-01-16T16:21:48.529Z,4.90
2019-01-16T16:24:17.438Z,5.00
2019-01-16T16:26:51.866Z,4.50
2019-01-16T16:29:20.268Z,5.10
2019-01-16T16:32:05.592Z,5.07
2019-01-16T16:34:46.091Z,4.97
2019-01-16T16:37:31.240Z,4.83
2019-01-16T16:39:59.846Z,5.03
2019-01-16T16:42:34.417Z,5.23
2019-01-16T16:45:12.009Z,5.30
2019-01-16T16:47:40.290Z,5.03
2019-01-16T16:50:11.419Z,5.07
2019-01-16T16:52:51.821Z,6.20
2019-01-16T16:55:32.305Z,6.33
2019-01-16T16:58:12.869Z,5.17
2019-01-16T17:00:50.390Z,5.63
2019-01-16T17:03:36.880Z,5.73
2019-01-16T17:06:05.532Z,5.40
2019-01-16T17:08:40.055Z,5.13
2019-01-16T17:11:25.595Z,5.30
2019-01-16T17:13:56.925Z,5.47
2019-01-16T17:16:28.309Z,5.13
2019-01-16T17:18:56.824Z,5.13
2019-01-16T17:21:42.026Z,5.07
2019-01-16T17:24:25.596Z,5.20
2019-01-16T17:26:54.243Z,5.40
2019-01-16T17:29:22.774Z,5.80
2019-01-16T17:31:56.873Z,6.00
2019-01-16T17:34:38.380Z,5.47
2019-01-16T17:37:12.818Z,5.40
2019-01-16T17:39:41.363Z,5.17
2019-01-16T17:42:10.648Z,5.87
2019-01-16T17:44:48.117Z,5.10
2019-01-16T17:47:25.471Z,5.40
2019-01-16T17:49:54.018Z,5.93
2019-01-16T17:52:28.396Z,6.00
2019-01-16T17:54:59.480Z,5.03
2019-01-16T17:57:44.519Z,5.77
2019-01-16T18:00:26.058Z,5.63
2019-01-16T18:03:03.578Z,5.13
2019-01-16T18:05:34.927Z,5.60
2019-01-16T18:08:03.464Z,5.67
2019-01-16T18:10:35.013Z,6.10
2019-01-16T18:13:06.302Z,6.10
2019-01-16T18:15:40.989Z,5.83
2019-01-16T18:18:09.480Z,6.17
2019-01-16T18:20:53.265Z,5.97
2019-01-16T18:23:24.582Z,5.67
2019-01-16T18:25:59.265Z,6.03
2019-01-16T18:28:30.314Z,5.73
2019-01-16T18:30:59.219Z,5.77
2019-01-16T18:33:33.753Z,5.63
2019-01-16T18:36:12.473Z,6.03
2019-01-16T18:38:40.951Z,6.50
2019-01-16T18:41:28.077Z,6.00
2019-01-16T18:43:59.122Z,6.10
2019-01-16T18:46:39.972Z,6.17
2019-01-16T18:49:09.315Z,5.63
2019-01-16T18:51:37.799Z,6.07
2019-01-16T18:54:23.188Z,5.60
2019-01-16T18:56:59.056Z,5.97
2019-01-16T18:59:33.737Z,5.90
2019-01-16T19:02:02.294Z,5.40
2019-01-16T19:04:45.868Z,6.27
2019-01-16T19:07:17.204Z,6.80
2019-01-16T19:09:48.520Z,5.77
2019-01-16T19:12:36.408Z,6.13
2019-01-16T19:15:08.520Z,6.40
2019-01-16T19:17:38.573Z,5.83
2019-01-16T19:20:10.815Z,6.50
2019-01-16T19:22:39.341Z,6.57
2019-01-16T19:25:13.664Z,6.73
2019-01-16T19:27:43.764Z,6.90
2019-01-16T19:30:32.388Z,6.97
2019-01-16T19:33:17.515Z,6.90
2019-01-16T19:35:48.974Z,6.73
2019-01-16T19:38:26.535Z,6.47
2019-01-16T19:40:57.976Z,6.73
2019-01-16T19:43:38.668Z,6.53
2019-01-16T19:46:13.011Z,7.10
2019-01-16T19:48:50.454Z,6.60
2019-01-16T19:51:25.001Z,6.00
2019-01-16T19:53:59.288Z,5.80
2019-01-16T19:56:31.763Z,6.40
2019-01-16T19:59:00.168Z,7.07
2019-01-16T20:01:38.245Z,7.00
2019-01-16T20:04:15.283Z,7.00
2019-01-16T20:07:02.194Z,6.77
2019-01-16T20:09:30.752Z,7.43
2019-01-16T20:12:02.156Z,6.67
2019-01-16T20:14:39.658Z,6.70
2019-01-16T20:17:24.843Z,6.93
2019-01-16T20:20:00.437Z,6.80
2019-01-16T20:22:29.043Z,7.97
2019-01-16T20:24:57.934Z,6.90
2019-01-16T20:27:29.224Z,7.67
2019-01-16T20:29:57.720Z,7.53
2019-01-16T20:32:29.203Z,7.33
2019-01-16T20:35:09.648Z,7.27
2019-01-16T20:37:33.971Z,7.33
2019-01-16T20:40:06.161Z,7.23
2019-01-16T20:42:37.344Z,6.87
2019-01-16T20:45:10.640Z,7.77
2019-01-16T20:47:39.219Z,8.40
2019-01-16T20:50:12.489Z,7.47
2019-01-16T20:52:51.194Z,7.07
2019-01-16T20:55:19.738Z,7.50
2019-01-16T20:58:00.316Z,8.33
2019-01-16T21:00:30.585Z,7.80
2019-01-16T21:02:59.168Z,7.57
2019-01-16T21:05:33.466Z,7.67
2019-01-16T21:08:12.985Z,7.93
2019-01-16T21:10:47.281Z,8.13
2019-01-16T21:13:18.317Z,8.43
2019-01-16T21:15:51.897Z,8.23
2019-01-16T21:18:17.359Z,8.07
2019-01-16T21:21:02.259Z,8.60
2019-01-16T21:23:33.623Z,8.57
2019-01-16T21:26:18.783Z,8.20
2019-01-16T21:28:51.118Z,7.93
2019-01-16T21:31:27.346Z,8.13
2019-01-16T21:34:07.919Z,8.83
2019-01-16T21:36:36.732Z,9.20
2019-01-16T21:39:10.540Z,8.60
2019-01-16T21:41:55.898Z,8.73
2019-01-16T21:44:27.249Z,8.63
2019-01-16T21:47:00.256Z,8.53
2019-01-16T21:49:37.783Z,8.93
2019-01-16T21:52:08.667Z,9.23
2019-01-16T21:54:55.351Z,9.07
2019-01-16T21:57:40.975Z,8.63
2019-01-16T22:00:15.871Z,9.33
2019-01-16T22:02:44.410Z,9.40
2019-01-16T22:05:19.111Z,9.37
2019-01-16T22:07:47.758Z,9.27
2019-01-16T22:10:34.197Z,8.87
2019-01-16T22:13:02.952Z,9.47
2019-01-16T22:15:33.969Z,9.10
2019-01-16T22:18:05.898Z,9.57
2019-01-16T22:20:53.081Z,9.60
2019-01-16T22:23:24.619Z,9.57
2019-01-16T22:25:57.058Z,9.43
2019-01-16T22:28:37.942Z,9.37
2019-01-16T22:31:21.815Z,9.40
2019-01-16T22:33:53.144Z,10.10
2019-01-16T22:36:24.181Z,10.07
2019-01-16T22:38:56.179Z,9.07
2019-01-16T22:41:27.236Z,10.00
2019-01-16T22:43:57.024Z,9.40
2019-01-16T22:46:25.539Z,9.47
2019-01-16T22:49:00.145Z,10.00
2019-01-16T22:51:46.000Z,9.70
2019-01-16T22:54:27.886Z,9.07
2019-01-16T22:57:14.603Z,9.67
2019-01-16T22:59:51.908Z,9.27
2019-01-16T23:02:23.181Z,9.83
2019-01-16T23:04:54.516Z,9.87
2019-01-16T23:07:28.946Z,10.67
2019-01-16T23:10:15.343Z,11.60
2019-01-16T23:12:53.775Z,11.03
2019-01-16T23:15:35.864Z,11.20
2019-01-16T23:18:22.655Z,9.77
2019-01-16T23:21:00.179Z,11.80
2019-01-16T23:23:29.865Z,11.70
2019-01-16T23:26:10.173Z,11.90
2019-01-16T23:28:51.292Z,12.67
2019-01-16T23:31:20.871Z,11.70
2019-01-16T23:34:06.454Z,11.90
2019-01-16T23:36:34.956Z,12.57
2019-01-16T23:39:15.777Z,13.60
2019-01-16T23:41:50.631Z,11.57
2019-01-16T23:44:27.956Z,14.00
2019-01-16T23:46:59.391Z,13.70
2019-01-16T23:49:27.948Z,14.20
2019-01-16T23:52:08.130Z,13.93
2019-01-16T23:54:48.678Z,12.87
2019-01-16T23:57:23.008Z,13.87
2019-01-16T23:59:51.529Z,14.80
